Pearces, Michigan
Current Conditions -  °F | °C
As of 5:15 PM on Saturday 25 Oct 2014 (Local Time) from KOZW Reporting Station
Clear Clear  
Wind Chill: 64°   Ceiling: Unl
Heat Index: 64°   Visibility: 10mi
Dew Point: 26°   Wind: 23mph
Humidity: 24%   Direction: 280°W
Pressure: 29.75"   Gusts: 31mph
Location:  42.7°N, 83.9305°W
Report Text: KOZW 252115Z AUTO 28020G27KT 10SM CLR 18/M03 A2975 RMK AO2 T01761033
Loading
Personal Weather Stations






























Interactive Weather Map New forecast layout! Learn more

10-Day Weather Forecast

Advertisements
Track Severe Weather on mobile